createdAt,value
2023-01-19T00:06:54.894Z,6.70
2023-01-19T00:08:56.991Z,6.60
2023-01-19T00:10:58.738Z,6.60
2023-01-19T00:13:01.097Z,6.70
2023-01-19T00:15:03.675Z,6.70
2023-01-19T00:17:05.660Z,6.60
2023-01-19T00:19:07.898Z,6.70
2023-01-19T00:21:09.835Z,6.70
2023-01-19T00:23:11.736Z,6.60
2023-01-19T00:25:13.674Z,6.80
2023-01-19T00:27:15.574Z,6.80
2023-01-19T00:29:17.468Z,6.70
2023-01-19T00:31:21.800Z,6.70
2023-01-19T00:33:23.856Z,6.60
2023-01-19T00:35:26.032Z,6.60
2023-01-19T00:37:27.841Z,6.70
2023-01-19T00:39:29.741Z,6.80
2023-01-19T00:41:50.082Z,6.90
2023-01-19T00:43:51.979Z,7.00
2023-01-19T00:45:53.922Z,7.00
2023-01-19T00:47:57.312Z,7.00
2023-01-19T00:49:59.332Z,7.00
2023-01-19T00:52:01.254Z,7.00
2023-01-19T00:54:05.019Z,7.10
2023-01-19T00:56:07.349Z,7.10
2023-01-19T00:58:09.681Z,7.10
2023-01-19T01:00:16.845Z,7.10
2023-01-19T01:02:19.017Z,7.40
2023-01-19T01:04:20.948Z,7.20
2023-01-19T01:06:23.053Z,7.40
2023-01-19T01:08:24.899Z,7.60
2023-01-19T01:10:29.571Z,7.30
2023-01-19T01:12:31.417Z,7.20
2023-01-19T01:14:33.390Z,7.20
2023-01-19T01:16:35.521Z,7.20
2023-01-19T01:18:37.373Z,7.30
2023-01-19T01:20:39.286Z,7.30
2023-01-19T01:22:45.236Z,7.30
2023-01-19T01:24:47.235Z,7.30
2023-01-19T01:26:49.133Z,7.30
2023-01-19T01:28:51.026Z,7.30
2023-01-19T01:30:57.165Z,7.30
2023-01-19T01:32:59.341Z,7.30
2023-01-19T01:35:01.433Z,7.30
2023-01-19T01:37:03.306Z,7.30
2023-01-19T01:39:05.958Z,7.30
2023-01-19T01:41:08.418Z,7.40
2023-01-19T01:43:14.114Z,7.40
2023-01-19T01:45:37.508Z,7.30
2023-01-19T01:47:45.810Z,7.30
2023-01-19T01:49:48.895Z,7.30
2023-01-19T01:51:54.095Z,7.30
2023-01-19T01:54:09.450Z,7.40
2023-01-19T01:56:16.781Z,7.50
2023-01-19T01:58:18.736Z,7.40
2023-01-19T02:00:20.711Z,7.50
2023-01-19T04:16:31.757Z,7.90
2023-01-19T04:18:34.882Z,7.90
2023-01-19T04:20:37.631Z,7.90
2023-01-19T04:22:39.740Z,7.90
2023-01-19T04:24:41.500Z,8.00
2023-01-19T04:26:44.170Z,8.00
2023-01-19T04:28:46.130Z,7.90
2023-01-19T04:30:51.861Z,7.80
2023-01-19T04:32:55.508Z,7.70
2023-01-19T04:34:57.408Z,7.80
2023-01-19T04:36:59.251Z,7.80
2023-01-19T04:39:01.196Z,7.90
2023-01-19T04:41:03.277Z,7.80
2023-01-19T04:43:05.000Z,7.80
2023-01-19T04:45:07.363Z,7.80
2023-01-19T04:47:09.594Z,7.80
2023-01-19T04:49:11.507Z,7.80
2023-01-19T04:51:14.388Z,7.80
2023-01-19T04:53:16.646Z,7.80
2023-01-19T04:55:18.534Z,7.70
2023-01-19T04:57:20.621Z,7.90
2023-01-19T04:59:22.383Z,7.90
2023-01-19T05:01:24.822Z,7.90
2023-01-19T05:03:27.172Z,7.90
2023-01-19T05:05:29.547Z,7.90
2023-01-19T05:07:31.490Z,7.90
2023-01-19T05:09:33.461Z,7.90
2023-01-19T05:11:36.254Z,8.00
2023-01-19T05:13:38.126Z,8.20
2023-01-19T05:15:40.023Z,8.20
2023-01-19T05:17:42.409Z,8.30
2023-01-19T05:19:44.304Z,8.30
2023-01-19T05:21:46.160Z,8.20
2023-01-19T05:23:48.074Z,8.20
2023-01-19T05:25:49.950Z,8.20
2023-01-19T05:27:51.862Z,8.30
2023-01-19T05:29:53.828Z,8.40
2023-01-19T05:31:55.882Z,8.40
2023-01-19T05:33:57.641Z,8.40
2023-01-19T05:35:59.737Z,8.20
2023-01-19T05:38:01.972Z,8.10
2023-01-19T05:40:04.310Z,8.10
2023-01-19T05:42:06.327Z,8.10
2023-01-19T05:44:09.696Z,8.10
2023-01-19T05:46:11.942Z,8.20
2023-01-19T05:48:13.874Z,8.20
2023-01-19T05:50:15.974Z,8.20
2023-01-19T05:52:17.759Z,8.10
2023-01-19T05:54:20.775Z,8.00
2023-01-19T05:56:22.675Z,8.00
2023-01-19T05:58:24.658Z,8.00
2023-01-19T06:00:27.521Z,7.90
2023-01-19T08:13:37.822Z,9.90
2023-01-19T08:15:39.751Z,10.20
2023-01-19T08:17:41.699Z,10.20
2023-01-19T08:19:45.054Z,10.30
2023-01-19T08:21:46.896Z,10.50
2023-01-19T08:23:55.878Z,10.70
2023-01-19T08:25:57.931Z,11.10
2023-01-19T08:28:00.472Z,11.10
2023-01-19T08:30:02.354Z,11.20
2023-01-19T08:32:04.881Z,11.20
2023-01-19T08:34:06.944Z,11.30
2023-01-19T08:36:08.858Z,11.10
2023-01-19T08:38:12.080Z,11.30
2023-01-19T08:40:14.113Z,11.40
2023-01-19T08:42:16.032Z,11.50
2023-01-19T08:44:18.157Z,11.40
2023-01-19T08:46:21.986Z,11.30
2023-01-19T08:48:24.349Z,11.30
2023-01-19T08:50:27.677Z,11.40
2023-01-19T08:52:30.658Z,11.40
2023-01-19T08:54:32.518Z,11.50
2023-01-19T08:56:34.481Z,11.60
2023-01-19T08:58:36.353Z,11.60
2023-01-19T09:00:39.682Z,11.50
2023-01-19T09:02:41.695Z,11.50
2023-01-19T09:04:43.592Z,11.40
2023-01-19T09:06:45.450Z,11.40
2023-01-19T09:08:49.171Z,11.30
2023-01-19T09:10:51.888Z,11.50
2023-01-19T09:12:53.756Z,11.60
2023-01-19T09:14:55.731Z,11.50
2023-01-19T09:16:57.694Z,11.40
2023-01-19T09:18:59.592Z,11.30
2023-01-19T09:21:02.496Z,11.30
2023-01-19T09:23:04.793Z,11.20
2023-01-19T09:25:08.189Z,11.10
2023-01-19T09:27:10.100Z,11.50
2023-01-19T09:29:11.959Z,11.50
2023-01-19T09:31:15.224Z,11.40
2023-01-19T09:33:18.958Z,11.20
2023-01-19T09:35:21.660Z,11.20
2023-01-19T09:37:23.626Z,11.20
2023-01-19T09:39:26.512Z,11.20
2023-01-19T09:41:29.684Z,11.20
2023-01-19T09:43:34.351Z,11.30
2023-01-19T09:45:46.190Z,11.40
2023-01-19T09:47:49.615Z,11.40
2023-01-19T09:50:06.802Z,11.40
2023-01-19T09:52:13.599Z,11.40
2023-01-19T09:54:16.933Z,11.40
2023-01-19T09:56:22.524Z,11.40
2023-01-19T09:58:24.441Z,11.50
2023-01-19T10:00:29.201Z,11.60
2023-01-19T12:15:02.408Z,13.30
2023-01-19T12:17:07.729Z,13.60
2023-01-19T12:19:25.166Z,13.80
2023-01-19T12:21:27.075Z,13.90
2023-01-19T12:23:55.942Z,14.00
2023-01-19T12:25:58.165Z,14.00
2023-01-19T12:28:00.668Z,13.80
2023-01-19T12:30:03.197Z,13.80
2023-01-19T12:32:14.103Z,13.80
2023-01-19T12:34:40.434Z,13.80
2023-01-19T12:36:44.038Z,13.70
2023-01-19T12:38:46.916Z,13.90
2023-01-19T12:40:48.876Z,13.80
2023-01-19T12:42:59.402Z,13.80
2023-01-19T12:45:13.595Z,13.60
2023-01-19T12:47:15.504Z,13.50
2023-01-19T12:49:42.471Z,13.50
2023-01-19T12:51:44.550Z,13.40
2023-01-19T12:53:51.268Z,13.30
2023-01-19T12:56:01.187Z,13.40
2023-01-19T12:58:20.668Z,13.50
2023-01-19T13:00:22.583Z,13.30
2023-01-19T13:02:24.529Z,13.30
2023-01-19T13:04:35.767Z,13.30
2023-01-19T13:07:12.162Z,13.30
2023-01-19T13:09:32.010Z,13.40
2023-01-19T13:11:36.570Z,13.50
2023-01-19T13:13:43.930Z,13.60
2023-01-19T13:15:45.881Z,13.50
2023-01-19T13:17:52.888Z,13.40
2023-01-19T13:20:17.579Z,13.40
2023-01-19T13:22:50.102Z,13.40
2023-01-19T13:25:24.261Z,13.40
2023-01-19T13:27:28.659Z,13.40
2023-01-19T13:29:37.294Z,13.40
2023-01-19T13:31:44.674Z,13.50
2023-01-19T13:33:55.702Z,13.30
2023-01-19T13:35:58.988Z,13.10
2023-01-19T13:38:01.415Z,13.10
2023-01-19T13:40:06.481Z,12.90
2023-01-19T13:42:22.783Z,12.90
2023-01-19T13:44:32.877Z,13.00
2023-01-19T13:46:38.545Z,13.10
2023-01-19T13:48:51.357Z,12.90
2023-01-19T13:50:58.832Z,12.60
2023-01-19T13:53:01.523Z,12.60
2023-01-19T13:55:05.445Z,12.50
2023-01-19T13:57:23.201Z,12.50
2023-01-19T13:59:25.265Z,12.40
2023-01-19T16:13:36.351Z,10.50
2023-01-19T16:15:40.823Z,10.40
2023-01-19T16:17:43.562Z,10.40
2023-01-19T16:19:45.735Z,10.30
2023-01-19T16:21:47.705Z,10.40
2023-01-19T16:23:49.812Z,10.40
2023-01-19T16:25:56.074Z,10.40
2023-01-19T16:27:58.433Z,10.20
2023-01-19T16:30:04.859Z,10.10
2023-01-19T16:32:07.311Z,10.00
2023-01-19T16:34:10.037Z,10.00
2023-01-19T16:36:26.954Z,9.90
2023-01-19T16:38:29.333Z,9.90
2023-01-19T16:40:34.189Z,9.90
2023-01-19T16:42:36.260Z,10.00
2023-01-19T16:44:38.262Z,10.00
2023-01-19T16:46:42.357Z,10.00
2023-01-19T16:48:44.324Z,9.80
2023-01-19T16:51:06.788Z,9.60
2023-01-19T16:53:10.803Z,9.50
2023-01-19T16:55:12.787Z,9.50
2023-01-19T16:57:15.065Z,9.50
2023-01-19T16:59:18.112Z,9.90
2023-01-19T17:01:21.337Z,9.70
2023-01-19T17:03:27.389Z,9.60
2023-01-19T17:05:29.287Z,9.40
2023-01-19T17:07:31.270Z,9.40
2023-01-19T17:09:34.173Z,9.40
2023-01-19T17:11:36.767Z,9.40
2023-01-19T17:13:39.523Z,9.50
2023-01-19T17:15:41.700Z,9.50
2023-01-19T17:17:43.528Z,9.50
2023-01-19T17:19:45.553Z,9.40
2023-01-19T17:21:51.181Z,9.40
2023-01-19T17:23:55.399Z,9.40
2023-01-19T17:25:58.630Z,9.40
2023-01-19T17:28:01.584Z,9.40
2023-01-19T17:30:04.648Z,9.40
2023-01-19T17:32:06.701Z,9.50
2023-01-19T17:34:09.979Z,9.60
2023-01-19T17:36:14.947Z,9.70
2023-01-19T17:38:17.380Z,9.40
2023-01-19T17:40:19.457Z,9.30
2023-01-19T17:42:21.309Z,9.20
2023-01-19T17:44:25.266Z,9.30
2023-01-19T17:46:28.853Z,9.20
2023-01-19T17:48:31.056Z,9.10
2023-01-19T17:50:34.741Z,9.20
2023-01-19T17:52:36.885Z,9.30
2023-01-19T17:54:38.796Z,9.20
2023-01-19T17:56:41.392Z,9.10
2023-01-19T17:58:45.081Z,9.10
2023-01-19T18:00:47.006Z,9.00
2023-01-19T20:13:42.403Z,8.20
2023-01-19T20:15:44.559Z,8.20
2023-01-19T20:17:46.370Z,8.30
2023-01-19T20:19:49.182Z,8.20
2023-01-19T20:21:51.122Z,8.10
2023-01-19T20:23:54.276Z,8.20
2023-01-19T20:25:56.228Z,8.10
2023-01-19T20:27:59.413Z,8.20
2023-01-19T20:30:01.646Z,8.10
2023-01-19T20:32:04.034Z,8.00
2023-01-19T20:34:09.023Z,8.00
2023-01-19T20:36:14.405Z,7.90
2023-01-19T20:38:16.471Z,7.80
2023-01-19T20:40:18.478Z,8.00
2023-01-19T20:42:20.697Z,8.10
2023-01-19T20:44:25.292Z,8.00
2023-01-19T20:46:27.337Z,8.00
2023-01-19T20:48:29.207Z,7.90
2023-01-19T20:50:31.120Z,7.90
2023-01-19T20:52:35.985Z,7.80
2023-01-19T20:54:39.833Z,7.80
2023-01-19T20:56:42.018Z,7.90
2023-01-19T20:58:44.102Z,7.90
2023-01-19T21:00:46.038Z,7.90
2023-01-19T21:02:48.203Z,7.80
2023-01-19T21:04:50.947Z,7.80
2023-01-19T21:06:52.946Z,7.80
2023-01-19T21:08:54.949Z,7.80
2023-01-19T21:10:58.202Z,7.80
2023-01-19T21:13:00.110Z,7.90
2023-01-19T21:15:02.231Z,7.90
2023-01-19T21:17:04.074Z,7.90
2023-01-19T21:19:06.737Z,7.80
2023-01-19T21:21:14.955Z,7.70
2023-01-19T21:23:23.798Z,7.70
2023-01-19T21:25:26.002Z,7.70
2023-01-19T21:27:27.920Z,7.70
2023-01-19T21:29:29.950Z,7.80
2023-01-19T21:31:32.120Z,7.80
2023-01-19T21:33:34.705Z,7.90
2023-01-19T21:35:37.487Z,7.90
2023-01-19T21:37:39.741Z,7.80
2023-01-19T21:39:41.865Z,7.70
2023-01-19T21:41:44.888Z,7.70
2023-01-19T21:43:47.081Z,7.60
2023-01-19T21:45:49.222Z,7.60
2023-01-19T21:47:51.272Z,7.60
2023-01-19T21:49:53.222Z,7.60
2023-01-19T21:51:55.453Z,7.60
2023-01-19T21:53:59.824Z,7.50
2023-01-19T21:56:02.117Z,7.50
2023-01-19T21:58:04.889Z,7.50
2023-01-19T22:00:08.451Z,7.40
